Time;durP1;ratioP1;P1;durP2;ratioP2;P2;SDS_P1;SDS_P2;PMS_P1;PMS_P2;Temp;Humidity;BMP_temperature;BMP_pressure;BME280_temperature;BME280_humidity;BME280_pressure;Samples;Min_cycle;Max_cycle;Signal;HPM_P1;HPM_P2
2022/05/22 00:00:58;;;;;;;0.60;0.60;;;;;;;14.66;62.38;99582.81;4974581;28;20038;-69
2022/05/22 00:03:27;;;;;;;0.50;0.50;;;;;;;14.66;62.52;99582.81;4974571;28;20061;-69
2022/05/22 00:05:56;;;;;;;1.13;0.70;;;;;;;14.66;62.18;99582.81;4974560;28;20094;-69
2022/05/22 00:08:26;;;;;;;1.07;1.07;;;;;;;14.62;62.08;99588.91;4974575;28;20312;-69
2022/05/22 00:11:01;;;;;;;0.60;0.60;;;;;;;14.61;61.87;99586.38;4975516;28;20141;-69
2022/05/22 00:13:30;;;;;;;0.60;0.60;;;;;;;14.66;62.15;99584.56;4978467;28;20110;-69
2022/05/22 00:18:41;;;;;;;0.50;0.50;;;;;;;14.61;62.41;99576.91;4978273;28;20047;-69
2022/05/22 00:21:10;;;;;;;0.73;0.73;;;;;;;14.49;63.47;99574.56;4978469;28;20110;-69
2022/05/22 00:23:40;;;;;;;0.50;0.50;;;;;;;14.37;63.23;99579.09;4978529;28;20047;-69
2022/05/22 00:26:09;;;;;;;0.40;0.40;;;;;;;14.32;63.69;99581.75;4978197;28;20469;-69
2022/05/22 00:28:39;;;;;;;0.70;0.70;;;;;;;14.29;64.32;99576.63;4978180;28;20102;-69
2022/05/22 00:31:08;;;;;;;0.50;0.50;;;;;;;14.30;64.52;99575.78;4978065;28;20057;-69
2022/05/22 00:33:38;;;;;;;0.40;0.40;;;;;;;14.31;64.39;99577.47;4977768;28;20047;-70
2022/05/22 00:36:07;;;;;;;0.60;0.60;;;;;;;14.19;64.56;99575.09;4978131;28;20059;-69
2022/05/22 00:38:36;;;;;;;0.68;0.68;;;;;;;13.99;64.66;99572.00;4978170;28;20047;-69
2022/05/22 00:41:08;;;;;;;0.90;0.75;;;;;;;13.83;65.60;99562.84;4978461;28;20051;-69
2022/05/22 00:43:41;;;;;;;0.82;0.77;;;;;;;13.78;65.71;99562.09;4977854;28;20109;-69
2022/05/22 00:46:18;;;;;;;0.43;0.43;;;;;;;13.78;65.70;99562.94;4977871;28;20117;-69
2022/05/22 00:48:53;;;;;;;0.80;0.80;;;;;;;13.73;65.68;99554.47;4977775;28;20110;-69
2022/05/22 00:51:26;;;;;;;0.50;0.50;;;;;;;13.69;65.59;99562.22;4977669;28;20059;-69
2022/05/22 00:53:59;;;;;;;0.50;0.50;;;;;;;13.66;66.04;99559.69;4977752;28;20138;-69
2022/05/22 00:56:36;;;;;;;0.40;0.40;;;;;;;13.62;65.97;99552.94;4977646;28;20047;-69
2022/05/22 00:59:10;;;;;;;1.30;1.20;;;;;;;13.57;65.98;99559.84;4977391;28;20050;-69
2022/05/22 01:01:41;;;;;;;0.47;0.47;;;;;;;13.51;66.07;99562.50;4977434;28;20062;-69
2022/05/22 01:04:17;;;;;;;1.67;0.95;;;;;;;13.51;66.12;99565.06;4977849;28;20055;-69
2022/05/22 01:06:52;;;;;;;0.60;0.60;;;;;;;13.52;66.61;99564.19;4977708;28;20071;-69
2022/05/22 01:09:21;;;;;;;1.38;0.90;;;;;;;13.46;66.49;99554.03;4977413;28;20134;-69
2022/05/22 01:11:56;;;;;;;0.77;0.77;;;;;;;13.39;66.23;99551.53;4977648;28;20055;-69
2022/05/22 01:14:37;;;;;;;0.40;0.40;;;;;;;13.37;66.33;99549.88;4960163;28;20058;-69
2022/05/22 01:17:09;;;;;;;0.70;0.70;;;;;;;13.38;66.32;99551.56;4977499;28;20061;-69
2022/05/22 01:19:40;;;;;;;0.50;0.50;;;;;;;13.35;66.59;99547.34;4959949;28;20081;-69
2022/05/22 01:22:13;;;;;;;0.50;0.50;;;;;;;13.35;66.39;99552.47;4959522;28;20082;-69
2022/05/22 01:24:53;;;;;;;0.45;0.45;;;;;;;13.33;66.85;99553.34;4976079;28;20047;-69
2022/05/22 01:27:24;;;;;;;0.55;0.55;;;;;;;13.33;66.67;99553.34;4976334;28;20055;-69
2022/05/22 01:30:11;;;;;;;0.50;0.50;;;;;;;13.28;66.66;99558.53;4977405;28;20055;-69
2022/05/22 01:32:43;;;;;;;0.45;0.45;;;;;;;13.23;66.50;99568.00;4960074;28;20138;-69
2022/05/22 01:35:15;;;;;;;0.68;0.50;;;;;;;13.23;66.65;99562.88;4959637;28;20058;-69
2022/05/22 01:37:51;;;;;;;0.40;0.40;;;;;;;13.22;66.28;99566.31;4976874;28;20117;-69
2022/05/22 01:40:22;;;;;;;0.52;0.52;;;;;;;13.30;66.11;99564.50;4976796;28;20137;-69
2022/05/22 01:42:53;;;;;;;0.63;0.63;;;;;;;13.52;65.83;99556.50;4959495;28;20114;-69
2022/05/22 01:45:24;;;;;;;0.55;0.55;;;;;;;13.51;65.54;99562.50;4977031;28;20129;-69
2022/05/22 01:47:54;;;;;;;0.52;0.52;;;;;;;13.47;64.94;99561.69;4977046;28;20535;-69
2022/05/22 01:50:33;;;;;;;;;;;;;;;13.43;64.94;99560.06;4976295;28;20062;-69
2022/05/22 01:53:04;;;;;;;0.60;0.60;;;;;;;13.51;65.07;99562.50;4975503;28;19957;-69
2022/05/22 01:55:34;;;;;;;0.52;0.52;;;;;;;13.56;64.77;99565.81;4975719;28;20061;-69
2022/05/22 01:58:06;;;;;;;0.38;0.38;;;;;;;13.57;64.87;99562.41;4959556;28;20512;-69
2022/05/22 02:00:38;;;;;;;0.85;0.80;;;;;;;13.63;64.64;99557.22;4975305;28;20090;-69
2022/05/22 02:03:11;;;;;;;0.50;0.50;;;;;;;13.54;64.79;99557.31;4959600;28;20054;-69
2022/05/22 02:05:50;;;;;;;0.50;0.50;;;;;;;13.61;65.03;99559.78;4976456;28;20063;-68
2022/05/22 02:08:21;;;;;;;0.57;0.57;;;;;;;13.71;64.76;99556.22;4976416;28;20138;-69
2022/05/22 02:10:59;;;;;;;0.52;0.52;;;;;;;13.69;64.71;99557.09;4976329;28;20101;-69
2022/05/22 02:13:30;;;;;;;0.45;0.45;;;;;;;13.64;64.54;99551.19;4976263;28;20505;-69
2022/05/22 02:15:59;;;;;;;0.43;0.43;;;;;;;13.47;64.71;99530.06;4976239;28;20062;-69
2022/05/22 02:18:34;;;;;;;0.60;0.60;;;;;;;13.41;65.18;99542.13;4976048;28;20501;-69
2022/05/22 02:21:04;;;;;;;0.40;0.40;;;;;;;13.31;65.63;99543.13;4976413;28;20054;-69
2022/05/22 02:23:38;;;;;;;0.60;0.60;;;;;;;13.26;65.68;99551.75;4976265;28;20404;-69
2022/05/22 02:26:11;;;;;;;0.50;0.50;;;;;;;13.32;65.59;99549.09;4976274;28;20421;-69
2022/05/22 02:28:42;;;;;;;0.90;0.90;;;;;;;13.25;65.25;99521.84;4975090;28;20062;-69
2022/05/22 02:31:16;;;;;;;0.60;0.60;;;;;;;13.57;65.08;99547.03;4927437;28;20058;-69
2022/05/22 02:33:51;;;;;;;0.80;0.80;;;;;;;13.64;64.75;99538.38;4974312;28;20063;-69
2022/05/22 02:36:21;;;;;;;0.50;0.50;;;;;;;13.64;64.43;99543.50;4958133;28;20098;-69
2022/05/22 02:38:55;;;;;;;0.70;0.65;;;;;;;13.50;64.86;99542.84;4958640;28;20054;-69
2022/05/22 02:41:27;;;;;;;0.50;0.50;;;;;;;13.31;65.29;99555.94;4958629;28;20054;-69
2022/05/22 02:44:00;;;;;;;0.50;0.50;;;;;;;13.17;65.87;99549.31;4975179;28;20118;-69
2022/05/22 02:46:29;;;;;;;0.60;0.60;;;;;;;13.13;65.78;99545.06;4958363;28;20110;-68
2022/05/22 02:48:58;;;;;;;0.50;0.50;;;;;;;13.18;66.12;99549.28;4975648;28;20078;-69
2022/05/22 02:51:38;;;;;;;0.60;0.60;;;;;;;13.24;65.93;99544.09;4958418;28;20818;-69
2022/05/22 02:54:09;;;;;;;0.73;0.73;;;;;;;13.30;65.86;99546.56;4958269;28;20134;-69
2022/05/22 02:56:42;;;;;;;0.60;0.60;;;;;;;13.37;65.64;99553.28;4975465;28;20055;-69
2022/05/22 02:59:14;;;;;;;1.05;0.95;;;;;;;13.43;65.00;99550.66;4975399;28;20046;-69
2022/05/22 03:01:53;;;;;;;0.52;0.52;;;;;;;13.48;65.07;99549.72;4975532;28;20496;-69
2022/05/22 03:04:23;;;;;;;0.50;0.50;;;;;;;13.50;64.79;99550.56;4958421;28;20050;-69
2022/05/22 03:06:54;;;;;;;0.57;0.57;;;;;;;13.43;65.00;99545.53;4975326;28;20110;-69
2022/05/22 03:09:30;;;;;;;2.08;0.90;;;;;;;13.34;65.63;99550.75;4958010;28;20065;-69
2022/05/22 03:12:07;;;;;;;0.75;0.75;;;;;;;13.16;65.63;99548.47;4958081;28;20055;-68
2022/05/22 03:14:43;;;;;;;0.60;0.60;;;;;;;13.01;66.34;99551.19;4957911;28;20118;-69
2022/05/22 03:17:12;;;;;;;0.40;0.40;;;;;;;12.88;66.64;99549.66;4973946;28;20051;-69
2022/05/22 03:20:08;;;;;;;0.60;0.60;;;;;;;12.81;67.07;99548.03;4973185;28;20055;-69
2022/05/22 03:22:37;;;;;;;0.50;0.50;;;;;;;12.80;67.37;99551.44;4957914;28;20050;-69
2022/05/22 03:25:09;;;;;;;0.70;0.70;;;;;;;12.79;67.63;99549.75;4957808;28;20053;-69
2022/05/22 03:27:40;;;;;;;1.25;0.85;;;;;;;12.73;67.91;99552.38;4957801;28;20066;-69
2022/05/22 03:30:11;;;;;;;0.60;0.60;;;;;;;12.72;67.94;99555.81;4957635;28;20564;-69
2022/05/22 03:32:40;;;;;;;0.50;0.50;;;;;;;12.75;68.19;99555.78;4974043;28;20332;-69
2022/05/22 03:35:10;;;;;;;0.50;0.50;;;;;;;12.85;68.25;99554.81;4957411;28;20106;-68
2022/05/22 03:37:39;;;;;;;0.55;0.55;;;;;;;12.93;67.99;99557.28;4975126;28;20141;-69
2022/05/22 03:40:14;;;;;;;0.63;0.63;;;;;;;13.06;67.47;99559.69;4974769;28;20448;-69
2022/05/22 03:42:53;;;;;;;0.75;0.75;;;;;;;13.20;66.63;99541.56;4974809;28;20117;-69
2022/05/22 03:45:22;;;;;;;9.50;1.20;;;;;;;13.27;66.11;99549.16;4973361;28;20061;-68
2022/05/22 03:47:55;;;;;;;0.55;0.55;;;;;;;13.26;65.80;99544.91;4974762;28;20129;-69
2022/05/22 03:50:35;;;;;;;0.40;0.40;;;;;;;13.35;65.46;99552.47;4957595;28;20050;-69
2022/05/22 03:53:05;;;;;;;1.25;1.15;;;;;;;13.47;64.88;99555.72;4973615;28;20105;-69
2022/05/22 03:55:43;;;;;;;0.50;0.50;;;;;;;13.49;65.22;99559.09;4957447;28;20065;-70
2022/05/22 03:58:12;;;;;;;0.40;0.40;;;;;;;13.45;65.92;99563.44;4973761;28;20476;-69
2022/05/22 04:00:43;;;;;;;1.27;1.20;;;;;;;13.36;65.76;99559.28;4974905;28;20497;-69
2022/05/22 04:03:12;;;;;;;0.73;0.70;;;;;;;13.23;66.06;99550.06;4957436;28;20055;-69
2022/05/22 04:05:46;;;;;;;0.95;0.95;;;;;;;13.25;65.84;99561.16;4974594;28;20556;-68
2022/05/22 04:08:15;;;;;;;0.55;0.55;;;;;;;13.21;66.01;99564.63;4957308;28;20051;-69
2022/05/22 04:10:57;;;;;;;0.60;0.60;;;;;;;13.22;66.07;99561.19;4974488;28;20138;-69
2022/05/22 04:13:27;;;;;;;0.40;0.40;;;;;;;13.22;66.27;99556.06;4973695;28;20429;-69
2022/05/22 04:15:56;;;;;;;0.80;0.80;;;;;;;13.24;66.47;99556.06;4957548;28;20133;-69
2022/05/22 04:18:30;;;;;;;0.50;0.50;;;;;;;13.31;66.68;99555.94;4957232;28;20072;-69
2022/05/22 04:21:00;;;;;;;0.82;0.82;;;;;;;13.33;66.74;99554.22;4974443;28;20078;-69
2022/05/22 04:26:20;;;;;;;0.70;0.70;;;;;;;13.36;67.11;99559.28;4957250;28;20106;-69
2022/05/22 04:28:52;;;;;;;1.05;1.02;;;;;;;13.49;66.81;99564.22;4974650;28;20141;-69
2022/05/22 04:31:46;;;;;;;0.50;0.50;;;;;;;13.49;66.75;99561.66;4975066;28;20055;-70
2022/05/22 04:34:21;;;;;;;0.65;0.65;;;;;;;13.51;67.03;99571.03;4957237;28;20057;-70
2022/05/22 04:37:04;;;;;;;0.60;0.55;;;;;;;13.57;67.02;99567.53;4974325;28;20054;-69
2022/05/22 04:39:43;;;;;;;0.60;0.60;;;;;;;13.77;66.95;99570.66;4974579;28;20063;-69
2022/05/22 04:42:30;;;;;;;0.70;0.70;;;;;;;13.99;66.43;99567.72;4973186;28;20065;-68
2022/05/22 04:44:59;;;;;;;0.40;0.40;;;;;;;14.18;65.22;99573.38;4974577;28;20058;-69
2022/05/22 06:51:27;;;;;;;1.05;1.02;;;;;;;18.97;49.39;99539.00;4657683;23;20469;-74
2022/05/22 06:53:57;;;;;;;0.45;0.45;;;;;;;19.17;49.60;99544.31;4975298;28;20061;-69
2022/05/22 06:56:43;;;;;;;0.50;0.50;;;;;;;19.33;48.99;99548.84;4958563;28;20055;-70
2022/05/22 06:59:18;;;;;;;0.65;0.65;;;;;;;19.47;49.14;99532.78;4975447;28;20054;-68
2022/05/22 07:01:46;;;;;;;0.70;0.70;;;;;;;19.65;49.24;99546.78;4975452;28;20079;-68
2022/05/22 07:04:26;;;;;;;0.85;0.82;;;;;;;19.82;48.84;99544.34;4975678;28;20130;-68
2022/05/22 07:07:08;;;;;;;0.40;0.40;;;;;;;19.81;48.57;99543.50;4975186;28;20055;-68
2022/05/22 07:13:34;;;;;;;0.60;0.60;;;;;;;19.89;48.16;99531.06;4975379;28;20460;-70
2022/05/22 07:16:21;;;;;;;0.77;0.75;;;;;;;20.10;48.45;99539.72;4975073;28;20054;-70
2022/05/22 07:19:17;;;;;;;0.50;0.50;;;;;;;20.34;48.02;99537.88;4975021;28;20062;-70
2022/05/22 07:21:57;;;;;;;1.35;1.25;;;;;;;20.42;47.92;99541.00;4974594;28;20058;-69
2022/05/22 07:24:43;;;;;;;0.57;0.57;;;;;;;20.34;47.59;99543.06;4973997;28;20497;-69
2022/05/22 07:27:40;;;;;;;0.55;0.55;;;;;;;20.42;47.27;99536.63;4975070;28;20077;-68
2022/05/22 07:30:39;;;;;;;0.70;0.70;;;;;;;20.64;47.84;99542.56;4957766;28;20043;-69
2022/05/22 07:33:29;;;;;;;1.40;0.90;;;;;;;20.55;47.22;99531.75;4935239;28;20061;-70
2022/05/22 07:36:05;;;;;;;0.50;0.50;;;;;;;20.26;47.80;99538.19;4973679;28;20133;-70
2022/05/22 07:38:45;;;;;;;0.50;0.50;;;;;;;20.20;48.50;99530.66;4974791;28;20055;-70
2022/05/22 07:41:21;;;;;;;4.68;1.67;;;;;;;20.43;49.58;99529.69;4974768;28;20061;-70
2022/05/22 07:44:10;;;;;;;0.60;0.60;;;;;;;20.51;48.64;99535.41;4974738;28;20074;-70
2022/05/22 07:46:53;;;;;;;0.60;0.60;;;;;;;20.57;48.96;99524.75;4975017;28;20125;-69
2022/05/22 07:52:40;;;;;;;4.38;2.05;;;;;;;20.70;46.44;99521.56;4974632;28;20123;-70
2022/05/22 07:55:41;;;;;;;35.78;5.18;;;;;;;20.66;46.47;99530.38;4971210;28;20114;-71
2022/05/22 07:58:22;;;;;;;0.50;0.50;;;;;;;20.42;46.80;99520.25;4974636;28;20053;-71
2022/05/22 08:01:01;;;;;;;0.40;0.40;;;;;;;20.26;47.02;99519.19;4974620;28;20139;-70
2022/05/22 08:03:41;;;;;;;0.40;0.40;;;;;;;20.32;47.08;99517.22;4974511;28;20051;-70
2022/05/22 08:06:16;;;;;;;0.80;0.80;;;;;;;20.45;46.69;99510.56;4974928;28;20141;-68
2022/05/22 08:08:48;;;;;;;2.03;1.20;;;;;;;20.57;46.12;99509.19;4957302;28;20086;-70
2022/05/22 08:11:26;;;;;;;0.40;0.40;;;;;;;20.58;46.69;99505.69;4974535;28;20113;-70
2022/05/22 08:14:05;;;;;;;0.95;0.95;;;;;;;20.38;46.75;99503.97;4974536;28;20563;-70
2022/05/22 08:16:55;;;;;;;1.55;0.63;;;;;;;20.61;47.28;99500.38;4957334;28;20139;-68
2022/05/22 08:19:29;;;;;;;0.77;0.77;;;;;;;20.79;46.39;99496.94;4974515;28;20054;-70
2022/05/22 08:22:09;;;;;;;0.40;0.40;;;;;;;20.97;46.63;99503.88;4974471;28;20488;-70
2022/05/22 08:24:49;;;;;;;0.40;0.40;;;;;;;20.98;45.57;99490.00;4959407;28;20059;-69
2022/05/22 08:27:23;;;;;;;0.57;0.57;;;;;;;20.91;44.88;99487.75;4974382;28;20090;-70
2022/05/22 08:30:03;;;;;;;0.50;0.50;;;;;;;21.04;44.63;99484.53;4974396;28;20082;-70
2022/05/22 08:32:37;;;;;;;1.05;0.98;;;;;;;21.02;44.26;99486.34;4975073;28;20441;-70
2022/05/22 08:35:21;;;;;;;0.50;0.50;;;;;;;21.27;44.80;99481.75;4978241;28;20515;-71
2022/05/22 08:37:50;;;;;;;0.80;0.80;;;;;;;21.52;44.83;99483.16;4978441;28;20399;-71
2022/05/22 08:40:37;;;;;;;0.60;0.60;;;;;;;21.85;43.74;99481.53;4977920;28;20050;-71
2022/05/22 08:43:11;;;;;;;0.60;0.60;;;;;;;22.13;43.50;99479.22;4978152;28;20051;-71
2022/05/22 08:45:44;;;;;;;0.60;0.60;;;;;;;22.04;43.30;99484.91;4978204;28;20047;-69
2022/05/22 08:48:31;;;;;;;0.50;0.50;;;;;;;22.11;43.65;99477.63;4977964;28;20047;-70
2022/05/22 08:51:01;;;;;;;0.40;0.40;;;;;;;22.02;42.70;99476.34;4977800;28;20102;-71
2022/05/22 08:53:38;;;;;;;0.63;0.63;;;;;;;21.75;42.67;99464.69;4977529;28;20504;-71
2022/05/22 08:59:03;;;;;;;0.82;0.80;;;;;;;22.14;42.13;99472.28;4978023;28;20073;-71
2022/05/22 09:02:21;;;;;;;0.57;0.57;;;;;;;22.45;40.99;99473.22;4977752;28;20055;-69
2022/05/22 09:04:57;;;;;;;0.43;0.43;;;;;;;22.67;39.75;99465.97;4977638;28;20093;-71
2022/05/22 09:07:36;;;;;;;0.40;0.40;;;;;;;23.01;39.72;99458.97;4977491;28;20844;-71
2022/05/22 09:10:09;;;;;;;0.47;0.47;;;;;;;23.38;40.00;99458.63;4977832;28;20108;-70
2022/05/22 09:12:52;;;;;;;0.80;0.80;;;;;;;23.59;38.88;99461.75;4977380;28;20055;-71
2022/05/22 09:15:28;;;;;;;0.85;0.77;;;;;;;23.66;37.92;99456.09;4977375;28;20065;-71
2022/05/22 09:18:04;;;;;;;0.55;0.55;;;;;;;23.65;38.13;99449.22;4977561;28;20492;-70
2022/05/22 09:20:46;;;;;;;0.40;0.40;;;;;;;23.68;37.32;99456.84;4977289;28;20058;-70
2022/05/22 09:23:32;;;;;;;0.50;0.50;;;;;;;23.77;38.29;99451.13;4977143;28;20116;-68
2022/05/22 09:26:08;;;;;;;0.88;0.88;;;;;;;23.53;38.54;99449.09;4977071;28;20063;-71
2022/05/22 09:28:50;;;;;;;0.40;0.40;;;;;;;23.51;39.08;99438.75;4977135;28;20057;-71
2022/05/22 09:31:31;;;;;;;0.70;0.70;;;;;;;23.59;38.63;99435.69;4977027;28;20054;-69
2022/05/22 09:34:16;;;;;;;1.55;1.45;;;;;;;23.74;38.05;99422.63;4977282;28;20051;-70
2022/05/22 09:37:02;;;;;;;0.95;0.88;;;;;;;23.93;37.48;99425.81;4977079;28;20134;-70
2022/05/22 09:39:45;;;;;;;1.60;1.35;;;;;;;23.99;36.78;99417.63;4976923;28;20082;-69
2022/05/22 09:42:32;;;;;;;1.42;1.20;;;;;;;23.81;36.85;99416.13;4977235;28;20066;-70
2022/05/22 09:45:12;;;;;;;0.80;0.80;;;;;;;23.55;36.93;99424.63;4976361;28;20102;-69
2022/05/22 09:48:06;;;;;;;0.70;0.70;;;;;;;23.37;37.78;99425.66;4977044;28;20429;-69
2022/05/22 09:50:57;;;;;;;0.70;0.70;;;;;;;23.14;36.18;99418.28;4976772;28;20039;-68
2022/05/22 09:53:42;;;;;;;0.50;0.50;;;;;;;22.94;36.55;99421.19;4976144;28;20059;-71
2022/05/22 09:56:42;;;;;;;0.80;0.80;;;;;;;23.10;37.86;99417.63;4976818;28;20477;-70
2022/05/22 09:59:42;;;;;;;0.63;0.63;;;;;;;23.32;38.81;99419.88;4976557;28;20500;-70
2022/05/22 10:02:17;;;;;;;1.13;0.80;;;;;;;23.49;38.41;99414.53;4976473;28;20057;-70
2022/05/22 10:04:55;;;;;;;0.45;0.45;;;;;;;23.72;37.60;99416.66;4976524;28;20055;-71
2022/05/22 10:07:33;;;;;;;0.70;0.70;;;;;;;23.86;37.48;99403.66;4976389;28;20055;-70
2022/05/22 10:10:11;;;;;;;0.50;0.50;;;;;;;23.97;38.58;99419.50;4976826;28;20077;-70
2022/05/22 10:12:59;;;;;;;0.43;0.43;;;;;;;24.16;38.58;99405.41;4976399;28;20055;-69
2022/05/22 10:15:43;;;;;;;0.70;0.70;;;;;;;24.24;38.47;99410.97;4976368;28;20051;-68
2022/05/22 10:18:28;;;;;;;0.52;0.52;;;;;;;24.30;38.38;99402.78;4958939;28;20055;-71
2022/05/22 10:21:18;;;;;;;0.60;0.60;;;;;;;24.33;38.20;99402.59;4976291;28;20051;-70
2022/05/22 10:24:02;;;;;;;0.50;0.50;;;;;;;24.24;38.73;99401.38;4976125;28;20051;-70
2022/05/22 10:26:43;;;;;;;0.70;0.70;;;;;;;24.39;39.22;99400.44;4976360;28;20046;-71
2022/05/22 10:29:22;;;;;;;0.43;0.43;;;;;;;24.51;37.38;99396.25;4976611;28;20429;-66
2022/05/22 10:31:59;;;;;;;0.60;0.60;;;;;;;24.61;36.33;99400.81;4976122;28;20051;-70
2022/05/22 10:34:38;;;;;;;0.60;0.60;;;;;;;24.73;36.93;99396.59;4975836;28;20059;-70
2022/05/22 10:37:15;;;;;;;1.85;1.48;;;;;;;24.78;36.99;99393.72;4973903;28;20109;-70
2022/05/22 10:39:46;;;;;;;1.90;1.00;;;;;;;24.93;35.93;99393.56;4975201;28;20051;-70
2022/05/22 10:45:08;;;;;;;0.50;0.50;;;;;;;24.99;34.04;99398.41;4975571;28;20050;-69
2022/05/22 10:47:37;;;;;;;0.50;0.50;;;;;;;25.07;34.47;99395.31;4975658;28;20051;-69
2022/05/22 10:50:17;;;;;;;0.60;0.60;;;;;;;24.88;35.26;99393.03;4975286;28;20054;-70
2022/05/22 10:52:48;;;;;;;0.40;0.40;;;;;;;24.40;36.68;99383.03;4974868;28;20057;-70
2022/05/22 10:55:22;;;;;;;0.63;0.52;;;;;;;24.55;36.96;99366.41;4974265;28;20054;-71
2022/05/22 10:57:58;;;;;;;0.70;0.68;;;;;;;24.55;37.94;99380.28;4975424;28;20055;-71
2022/05/22 11:00:28;;;;;;;0.45;0.45;;;;;;;24.64;37.81;99371.88;4975570;28;20078;-68
2022/05/22 11:03:09;;;;;;;0.73;0.70;;;;;;;24.86;37.98;99378.41;4975205;28;20098;-71
2022/05/22 11:05:39;;;;;;;1.58;1.30;;;;;;;24.99;37.70;99372.28;4974855;28;20077;-71
2022/05/22 11:08:09;;;;;;;0.45;0.45;;;;;;;24.79;36.74;99370.09;4975289;28;20070;-69
2022/05/22 11:10:39;;;;;;;0.40;0.40;;;;;;;24.41;36.13;99369.03;4975159;28;20062;-68
2022/05/22 11:13:11;;;;;;;0.50;0.50;;;;;;;24.22;36.08;99358.06;4975409;28;20114;-69
2022/05/22 11:15:43;;;;;;;0.40;0.40;;;;;;;24.31;36.58;99349.66;4975107;28;20078;-70
2022/05/22 11:18:20;;;;;;;0.70;0.70;;;;;;;24.64;36.43;99356.22;4975029;28;20059;-70
2022/05/22 11:20:52;;;;;;;0.47;0.47;;;;;;;24.79;35.28;99354.44;4974769;28;20062;-71
2022/05/22 11:23:51;;;;;;;0.43;0.40;;;;;;;25.01;35.67;99356.50;4974819;28;20047;-72
2022/05/22 11:26:34;;;;;;;1.33;1.23;;;;;;;24.97;35.47;99348.03;4974908;28;20061;-70
2022/05/22 11:29:25;;;;;;;0.60;0.60;;;;;;;24.97;34.75;99348.03;4975218;28;20500;-68
2022/05/22 11:32:04;;;;;;;0.50;0.50;;;;;;;25.03;34.24;99342.41;4975295;28;20068;-68
2022/05/22 11:35:03;;;;;;;0.95;0.93;;;;;;;25.22;35.28;99345.50;4975149;28;20161;-69
2022/05/22 11:37:46;;;;;;;0.50;0.50;;;;;;;25.33;35.87;99338.72;4974815;28;20390;-69
2022/05/22 11:40:32;;;;;;;0.80;0.80;;;;;;;25.37;35.46;99340.19;4974802;28;20058;-67
2022/05/22 11:43:26;;;;;;;0.55;0.55;;;;;;;25.23;34.56;99347.19;4974913;28;20055;-68
2022/05/22 11:46:04;;;;;;;0.50;0.50;;;;;;;25.23;34.30;99344.56;4974827;28;20055;-69
2022/05/22 11:48:47;;;;;;;0.40;0.40;;;;;;;25.31;33.45;99346.69;4975100;28;20141;-69
2022/05/22 11:51:44;;;;;;;2.78;0.77;;;;;;;25.44;33.00;99346.66;4975137;28;20404;-70
2022/05/22 11:54:39;;;;;;;0.98;0.70;;;;;;;25.55;32.49;99349.47;4974407;28;20059;-68
2022/05/22 11:57:25;;;;;;;0.50;0.50;;;;;;;25.45;32.86;99343.16;4968195;28;20081;-71
2022/05/22 12:00:08;;;;;;;0.60;0.60;;;;;;;25.45;33.18;99332.72;4974696;28;20051;-70
2022/05/22 12:02:57;;;;;;;0.63;0.63;;;;;;;25.61;34.30;99323.72;4974561;28;20061;-69
2022/05/22 12:05:39;;;;;;;0.75;0.75;;;;;;;25.79;34.77;99337.34;4974555;28;20057;-70
2022/05/22 12:08:27;;;;;;;0.40;0.40;;;;;;;25.56;34.81;99336.28;4977941;28;20054;-69
2022/05/22 12:11:05;;;;;;;0.43;0.43;;;;;;;25.10;35.55;99317.56;4978636;28;20089;-70
2022/05/22 12:13:45;;;;;;;0.73;0.60;;;;;;;24.73;36.35;99341.75;4978522;28;20535;-70
2022/05/22 12:16:21;;;;;;;2.05;1.85;;;;;;;24.49;36.81;99335.47;4978716;28;20055;-68
2022/05/22 12:19:06;;;;;;;1.73;1.38;;;;;;;24.30;37.04;99329.72;4978456;28;20085;-69
2022/05/22 12:21:53;;;;;;;0.50;0.50;;;;;;;24.05;37.77;99326.91;4978428;28;20135;-70
2022/05/22 12:24:30;;;;;;;0.70;0.70;;;;;;;23.90;38.21;99321.72;4978179;28;20515;-72
2022/05/22 12:27:05;;;;;;;0.40;0.40;;;;;;;23.83;38.21;99325.63;4978199;28;20057;-71
2022/05/22 12:29:43;;;;;;;0.60;0.60;;;;;;;23.99;37.87;99321.16;4978249;28;20046;-71
2022/05/22 12:32:21;;;;;;;0.40;0.40;;;;;;;24.25;37.07;99321.34;4978064;28;20142;-71
2022/05/22 12:34:54;;;;;;;5.47;0.63;;;;;;;24.52;37.73;99324.84;4978215;28;20493;-71
2022/05/22 12:37:31;;;;;;;0.75;0.75;;;;;;;24.65;38.29;99320.50;4978128;28;20057;-70
2022/05/22 12:40:23;;;;;;;0.45;0.45;;;;;;;24.85;37.61;99311.44;4978051;28;20050;-69
2022/05/22 12:42:56;;;;;;;1.27;1.15;;;;;;;25.12;37.16;99300.00;4978021;28;20051;-70
2022/05/22 12:45:27;;;;;;;0.50;0.50;;;;;;;25.23;36.06;99301.91;4977825;28;20039;-71
2022/05/22 12:48:10;;;;;;;0.55;0.55;;;;;;;25.32;37.33;99303.91;4978304;28;20058;-69
2022/05/22 12:50:48;;;;;;;0.50;0.50;;;;;;;25.39;36.75;99301.75;4977779;28;20053;-69
2022/05/22 12:53:26;;;;;;;0.60;0.60;;;;;;;25.29;35.74;99312.78;4977635;28;20054;-68
2022/05/22 12:55:56;;;;;;;0.50;0.50;;;;;;;25.14;35.10;99303.38;4977661;28;20050;-69
2022/05/22 12:58:32;;;;;;;0.47;0.47;;;;;;;24.77;34.78;99313.69;4977533;28;20073;-69
2022/05/22 13:01:01;;;;;;;0.50;0.50;;;;;;;24.42;35.20;99308.09;4977689;28;20050;-69
2022/05/22 13:03:42;;;;;;;0.88;0.88;;;;;;;24.07;35.64;99301.66;4977684;28;20051;-67
2022/05/22 13:06:21;;;;;;;0.60;0.60;;;;;;;23.81;36.25;99296.19;4977523;28;20055;-69
2022/05/22 13:09:00;;;;;;;0.63;0.63;;;;;;;23.90;37.48;99300.00;4977707;28;20437;-69
2022/05/22 13:11:39;;;;;;;0.82;0.73;;;;;;;24.19;37.80;99290.41;4977539;28;20050;-69
2022/05/22 13:14:32;;;;;;;0.63;0.63;;;;;;;24.40;36.76;99283.88;4977301;28;20460;-68
2022/05/22 13:17:02;;;;;;;0.60;0.60;;;;;;;24.54;36.34;99289.03;4977444;28;20046;-69
2022/05/22 13:19:34;;;;;;;0.50;0.50;;;;;;;24.51;36.05;99297.06;4976447;28;20063;-69
2022/05/22 13:22:26;;;;;;;0.93;0.80;;;;;;;24.34;36.25;99299.91;4977536;28;20458;-69
2022/05/22 13:24:56;;;;;;;0.43;0.43;;;;;;;24.07;36.18;99291.22;4977470;28;20456;-68
2022/05/22 13:27:38;;;;;;;0.60;0.60;;;;;;;23.87;36.32;99298.41;4977121;28;20055;-68
2022/05/22 13:30:17;;;;;;;0.50;0.50;;;;;;;23.80;36.23;99288.50;4977009;28;20085;-70
2022/05/22 13:32:52;;;;;;;0.50;0.50;;;;;;;23.70;36.52;99292.59;4977158;28;20059;-69
2022/05/22 13:35:24;;;;;;;0.50;0.50;;;;;;;23.73;36.78;99277.56;4976935;28;20465;-68
2022/05/22 13:37:57;;;;;;;0.60;0.60;;;;;;;23.82;36.60;99292.69;4977043;28;20054;-70
2022/05/22 13:40:37;;;;;;;0.57;0.57;;;;;;;23.80;36.83;99280.66;4977261;28;20101;-70
2022/05/22 13:43:27;;;;;;;0.50;0.50;;;;;;;23.69;36.96;99281.31;4976879;28;20564;-69
2022/05/22 13:46:19;;;;;;;0.50;0.50;;;;;;;23.78;37.21;99270.31;4976770;28;20106;-69
2022/05/22 13:49:03;;;;;;;0.60;0.60;;;;;;;23.93;37.36;99268.53;4976967;28;20055;-70
2022/05/22 13:54:43;;;;;;;0.60;0.60;;;;;;;24.25;37.58;99250.91;4976337;28;20051;-70
2022/05/22 13:57:16;;;;;;;0.50;0.50;;;;;;;24.37;36.96;99248.38;4976533;28;20083;-70
2022/05/22 13:59:49;;;;;;;1.60;1.05;;;;;;;24.40;36.54;99252.56;4976696;28;20142;-69
2022/05/22 14:02:22;;;;;;;0.60;0.60;;;;;;;24.08;35.54;99240.72;4976499;28;20066;-69
2022/05/22 14:04:53;;;;;;;0.40;0.40;;;;;;;23.91;35.38;99242.56;4976594;28;20134;-68
2022/05/22 14:07:31;;;;;;;0.50;0.50;;;;;;;23.76;35.23;99230.47;4976845;28;20055;-69
2022/05/22 14:10:01;;;;;;;0.60;0.60;;;;;;;23.76;35.44;99232.25;4976592;28;20568;-67
2022/05/22 14:12:35;;;;;;;0.60;0.60;;;;;;;23.85;35.50;99235.13;4976409;28;20058;-69
2022/05/22 14:15:17;;;;;;;0.68;0.68;;;;;;;23.94;35.76;99218.94;4976627;28;20493;-70
2022/05/22 14:17:49;;;;;;;0.50;0.50;;;;;;;23.96;35.51;99221.44;4976328;28;20054;-67
2022/05/22 14:20:21;;;;;;;0.52;0.52;;;;;;;24.03;35.34;99222.72;4976537;28;20126;-68
2022/05/22 14:22:53;;;;;;;0.40;0.40;;;;;;;23.94;34.54;99218.94;4976256;28;20057;-69
2022/05/22 14:25:26;;;;;;;0.60;0.60;;;;;;;23.94;34.17;99218.94;4976068;28;20055;-68
2022/05/22 14:27:56;;;;;;;0.60;0.60;;;;;;;23.98;34.95;99214.34;4976228;28;20055;-71
2022/05/22 14:30:27;;;;;;;0.60;0.60;;;;;;;23.86;34.57;99213.34;4976095;28;20051;-70
2022/05/22 14:32:59;;;;;;;0.50;0.50;;;;;;;23.77;34.48;99219.13;4975960;28;20145;-67
2022/05/22 14:35:32;;;;;;;0.52;0.52;;;;;;;23.57;34.71;99211.69;4975994;28;20061;-68
2022/05/22 14:38:12;;;;;;;0.60;0.60;;;;;;;23.40;35.13;99217.09;4975878;28;20054;-67
2022/05/22 14:40:52;;;;;;;0.40;0.40;;;;;;;23.20;35.23;99210.44;4975905;28;20073;-70
2022/05/22 14:43:25;;;;;;;0.60;0.60;;;;;;;23.17;35.77;99212.41;4975987;28;20146;-70
2022/05/22 14:45:56;;;;;;;0.50;0.50;;;;;;;23.18;36.08;99217.50;4975768;28;20050;-67